Time;durP1;ratioP1;P1;durP2;ratioP2;P2;SDS_P1;SDS_P2;PMS_P1;PMS_P2;Temp;Humidity;BMP_temperature;BMP_pressure;BME280_temperature;BME280_humidity;BME280_pressure;Samples;Min_cycle;Max_cycle;Signal;HPM_P1;HPM_P2
2022/06/17 00:01:46;;;;;;;;;19.00;16.75;;;;;21.81;59.06;101236.41;146609;603;46018;-74
2022/06/17 00:04:38;;;;;;;;;16.25;15.50;;;;;21.78;58.99;101231.09;146607;621;46020;-75
2022/06/17 00:07:30;;;;;;;;;15.75;14.75;;;;;21.79;58.75;101230.19;146606;570;46922;-75
2022/06/17 00:10:27;;;;;;;;;16.25;15.25;;;;;21.82;58.13;101227.59;146609;563;46008;-75
2022/06/17 00:13:23;;;;;;;;;16.25;15.75;;;;;21.83;58.59;101226.72;146605;576;46018;-78
2022/06/17 00:16:17;;;;;;;;;17.50;15.25;;;;;21.87;58.92;101230.31;146608;581;46008;-78
2022/06/17 00:19:09;;;;;;;;;17.00;16.50;;;;;21.90;58.32;101238.28;146605;613;46018;-77
2022/06/17 00:22:02;;;;;;;;;14.25;14.25;;;;;21.95;58.11;101225.12;146608;660;46020;-78
2022/06/17 00:24:57;;;;;;;;;17.75;17.75;;;;;22.00;58.05;101224.31;146604;594;46018;-83
2022/06/17 00:27:49;;;;;;;;;14.75;13.25;;;;;22.03;57.50;101224.34;146607;600;46010;-78
2022/06/17 00:30:42;;;;;;;;;16.50;15.25;;;;;22.06;57.23;101229.69;146606;600;46018;-80
2022/06/17 00:33:34;;;;;;;;;18.50;16.75;;;;;22.10;56.35;101226.19;146609;596;46008;-80
2022/06/17 00:36:26;;;;;;;;;14.00;14.00;;;;;22.14;56.63;101224.47;146606;576;47008;-76
2022/06/17 00:39:22;;;;;;;;;13.25;13.00;;;;;22.18;56.30;101228.97;146604;680;46020;-75
2022/06/17 00:42:19;;;;;;;;;16.25;15.00;;;;;22.25;56.37;101222.00;146608;570;46008;-77
2022/06/17 00:45:30;;;;;;;;;16.50;15.00;;;;;22.27;56.23;101220.25;146605;575;46020;-77
2022/06/17 00:48:28;;;;;;;;;15.50;14.50;;;;;22.27;56.39;101220.25;146605;682;46018;-80
2022/06/17 00:51:26;;;;;;;;;16.25;14.50;;;;;22.25;56.56;101214.97;146606;643;47008;-84
2022/06/17 00:54:44;;;;;;;;;18.75;17.50;;;;;22.12;56.20;101213.03;146604;611;46922;-87
2022/06/17 00:57:43;;;;;;;;;15.00;14.50;;;;;21.98;57.12;101215.47;146607;565;46008;-79
2022/06/17 01:00:36;;;;;;;;;15.00;15.00;;;;;21.81;57.79;101212.66;146605;619;46018;-77
2022/06/17 01:03:34;;;;;;;;;15.50;14.50;;;;;21.67;58.09;101207.16;146608;588;46008;-77
2022/06/17 01:06:34;;;;;;;;;14.50;14.00;;;;;21.63;58.51;101223.84;146607;589;47008;-76
2022/06/17 01:12:53;;;;;;;;;17.25;16.25;;;;;21.63;58.86;101217.66;146606;588;46010;-77
2022/06/17 01:15:46;;;;;;;;;14.50;14.50;;;;;21.62;59.20;101222.06;146604;573;46020;-75
2022/06/17 01:18:45;;;;;;;;;15.25;14.50;;;;;20.56;59.19;101042.94;146605;692;46011;-80
2022/06/17 01:22:12;;;;;;;;;16.00;15.00;;;;;21.41;59.58;101221.75;146603;564;46020;-74
2022/06/17 01:25:20;;;;;;;;;18.75;16.75;;;;;21.26;60.21;101224.13;146605;578;46922;-76
2022/06/17 01:28:15;;;;;;;;;16.00;15.50;;;;;21.12;61.16;101216.91;146606;571;47008;-76
2022/06/17 01:31:10;;;;;;;;;15.50;14.00;;;;;21.04;60.65;101210.59;146609;606;46008;-79
2022/06/17 01:34:02;;;;;;;;;15.00;14.25;;;;;20.96;60.62;101209.56;146606;646;47010;-76
2022/06/17 01:36:56;;;;;;;;;17.50;15.50;;;;;20.92;61.27;101206.00;146607;575;46010;-78
2022/06/17 01:39:48;;;;;;;;;14.50;13.25;;;;;20.90;61.24;101201.56;146605;724;46021;-77
2022/06/17 01:42:42;;;;;;;;;16.75;16.50;;;;;20.91;61.49;101195.44;146606;592;46008;-82
2022/06/17 01:45:41;;;;;;;;;15.75;15.00;;;;;20.95;59.99;101190.25;146610;602;46008;-83
2022/06/17 01:48:39;;;;;;;;;15.00;14.00;;;;;20.99;60.25;101183.25;146607;581;46008;-78
2022/06/17 01:51:35;;;;;;;;;14.50;13.25;;;;;20.99;60.11;101181.50;146606;610;47008;-79
2022/06/17 01:54:48;;;;;;;;;15.50;14.75;;;;;21.00;59.55;101185.06;146606;677;46011;-80
2022/06/17 01:57:51;;;;;;;;;16.50;14.75;;;;;20.97;59.64;101182.37;146605;672;46020;-81
2022/06/17 02:00:44;;;;;;;;;17.75;16.00;;;;;20.96;59.77;101183.22;146605;569;47008;-75
2022/06/17 02:03:51;;;;;;;;;18.50;17.00;;;;;20.98;59.59;101173.59;146605;679;47008;-75
2022/06/17 02:06:59;;;;;;;;;13.25;13.00;;;;;21.00;59.61;101179.78;146607;584;46018;-75
2022/06/17 02:09:52;;;;;;;;;16.25;15.25;;;;;21.10;59.93;101180.81;146607;564;46008;-74
2022/06/17 02:12:44;;;;;;;;;14.75;14.75;;;;;21.18;60.04;101184.44;146608;604;46008;-74
2022/06/17 02:15:38;;;;;;;;;15.00;13.25;;;;;21.25;60.09;101175.78;146608;631;46010;-74
2022/06/17 02:18:30;;;;;;;;;17.50;15.75;;;;;21.28;59.80;101174.91;146604;594;46019;-82
2022/06/17 02:21:33;;;;;;;;;13.00;12.25;;;;;21.31;59.50;101175.87;146608;589;46008;-84
2022/06/17 02:24:27;;;;;;;;;16.25;15.25;;;;;20.64;59.78;101050.94;146607;657;46018;-84
2022/06/17 02:27:19;;;;;;;;;16.50;15.50;;;;;21.32;60.22;101167.06;146605;600;46020;-84
2022/06/17 02:30:12;;;;;;;;;14.00;14.00;;;;;21.30;60.15;101162.63;146609;577;46008;-84
2022/06/17 02:33:08;;;;;;;;;17.25;16.00;;;;;21.30;60.37;101175.81;146608;585;46009;-79
2022/06/17 02:36:10;;;;;;;;;14.75;14.75;;;;;21.24;60.35;101171.34;146606;593;46008;-79
2022/06/17 02:39:03;;;;;;;;;16.75;15.00;;;;;21.20;60.77;101180.06;146607;564;46008;-79
2022/06/17 02:41:56;;;;;;;;;13.50;13.00;;;;;21.21;60.70;101187.13;146605;592;46019;-79
2022/06/17 02:44:51;;;;;;;;;12.75;12.75;;;;;21.22;60.21;101181.00;146608;565;45020;-79
2022/06/17 02:47:44;;;;;;;;;14.25;12.75;;;;;21.26;60.54;101193.34;146607;595;46010;-79
2022/06/17 02:50:36;;;;;;;;;13.00;13.00;;;;;21.30;60.39;101189.00;146607;590;46008;-79
2022/06/17 02:53:36;;;;;;;;;17.25;13.00;;;;;21.36;60.09;101194.41;146607;588;46018;-79
2022/06/17 02:56:31;;;;;;;;;18.50;17.00;;;;;21.35;58.91;101190.91;146607;660;46008;-79
2022/06/17 02:59:43;;;;;;;;;12.00;11.75;;;;;21.28;58.67;101181.09;146609;684;46008;-80
2022/06/17 03:02:40;;;;;;;;;13.25;12.00;;;;;21.02;58.77;101159.59;146607;572;46020;-83
2022/06/17 03:05:37;;;;;;;;;13.50;13.00;;;;;21.15;59.08;101206.41;146629;570;45018;-82
2022/06/17 03:08:34;;;;;;;;;14.00;12.25;;;;;21.06;59.20;101208.88;146627;715;45020;-75
2022/06/17 03:11:26;;;;;;;;;11.25;11.25;;;;;21.01;59.32;101202.63;146629;623;45010;-74
2022/06/17 03:14:19;;;;;;;;;12.25;12.25;;;;;21.00;59.63;101203.50;146630;563;45010;-75
2022/06/17 03:17:15;;;;;;;;;14.50;13.00;;;;;20.95;59.79;101210.44;146630;573;45010;-74
2022/06/17 03:20:11;;;;;;;;;18.75;14.50;;;;;20.87;60.79;101204.16;146627;566;45020;-78
2022/06/17 03:23:07;;;;;;;;;15.75;13.25;;;;;20.82;60.15;101198.81;146627;602;45010;-78
2022/06/17 03:26:17;;;;;;;;;15.75;13.25;;;;;20.82;60.37;101203.22;146626;620;45021;-73
2022/06/17 03:29:11;;;;;;;;;17.75;16.50;;;;;20.82;60.79;101208.47;146623;566;45018;-73
2022/06/17 03:32:09;;;;;;;;;14.00;14.00;;;;;20.81;59.83;101212.87;146628;699;45010;-74
2022/06/17 03:35:01;;;;;;;;;17.00;15.00;;;;;20.80;59.42;101218.97;146628;569;44024;-79
2022/06/17 03:38:04;;;;;;;;;13.75;13.75;;;;;20.79;59.39;101214.56;146626;603;45010;-75
2022/06/17 03:41:03;;;;;;;;;15.00;13.50;;;;;20.79;59.87;101219.84;146631;658;45010;-79
2022/06/17 03:44:09;;;;;;;;;17.00;15.00;;;;;20.75;59.01;101213.63;146628;624;45010;-79
2022/06/17 03:47:07;;;;;;;;;16.25;13.50;;;;;20.78;59.65;101220.72;146626;597;46922;-78
2022/06/17 03:50:05;;;;;;;;;15.00;14.75;;;;;20.86;59.88;101220.84;146626;573;45020;-77
2022/06/17 03:53:07;;;;;;;;;16.75;15.50;;;;;20.91;59.94;101220.06;146625;616;45018;-84
2022/06/17 03:56:06;;;;;;;;;18.25;16.00;;;;;20.96;59.90;101223.63;146627;606;45030;-83
2022/06/17 03:59:09;;;;;;;;;13.75;12.50;;;;;20.98;59.35;101215.78;146627;577;45010;-79
2022/06/17 04:02:10;;;;;;;;;14.25;14.00;;;;;20.99;60.17;101223.69;146625;659;46008;-81
2022/06/17 04:05:06;;;;;;;;;18.25;18.00;;;;;20.99;61.40;101221.06;146610;633;46010;-79
2022/06/17 04:07:58;;;;;;;;;16.25;16.00;;;;;21.06;61.57;101221.16;146604;684;46020;-79
2022/06/17 04:10:50;;;;;;;;;16.75;15.50;;;;;21.15;62.08;101223.94;146607;579;46008;-74
2022/06/17 04:13:44;;;;;;;;;17.50;15.25;;;;;21.22;61.62;101226.72;146602;598;46020;-76
2022/06/17 04:17:07;;;;;;;;;17.75;14.50;;;;;21.41;60.09;101230.56;146606;681;46019;-76
2022/06/17 04:20:25;;;;;;;;;16.50;13.00;;;;;21.59;59.95;101222.03;146604;593;46020;-76
2022/06/17 04:23:33;;;;;;;;;20.00;16.25;;;;;21.79;59.01;101213.47;146607;571;46011;-75
2022/06/17 04:26:34;;;;;;;;;18.75;16.00;;;;;21.96;58.15;101216.31;146607;563;46024;-75
2022/06/17 04:29:39;;;;;;;;;16.25;15.50;;;;;22.14;58.86;101211.25;146611;577;45018;-75
2022/06/17 04:32:39;;;;;;;;;17.00;16.25;;;;;22.35;58.10;101202.75;146600;632;46021;-73
2022/06/17 04:35:32;;;;;;;;;16.25;16.25;;;;;22.59;58.44;101210.03;146608;573;45922;-74
2022/06/17 04:38:24;;;;;;;;;18.25;16.25;;;;;22.80;57.23;101209.31;146609;696;46008;-76
2022/06/17 04:41:18;;;;;;;;;16.50;15.75;;;;;23.03;56.93;101196.34;146607;592;46018;-77
2022/06/17 04:44:15;;;;;;;;;19.50;17.75;;;;;23.26;56.60;101200.03;146606;629;46020;-77
2022/06/17 04:47:30;;;;;;;;;17.75;17.50;;;;;23.50;55.93;101190.47;146605;576;47010;-88
2022/06/17 04:50:25;;;;;;;;;17.00;15.50;;;;;23.69;56.20;101189.72;146604;613;46020;-83
2022/06/17 04:53:20;;;;;;;;;20.00;16.25;;;;;23.72;55.66;101162.37;146610;620;45019;-83
2022/06/17 04:56:20;;;;;;;;;17.75;17.00;;;;;24.08;54.62;101192.50;146604;566;46020;-82
2022/06/17 04:59:38;;;;;;;;;16.75;16.75;;;;;24.27;53.99;101191.72;146603;596;46922;-82
2022/06/17 05:02:35;;;;;;;;;19.75;17.50;;;;;24.40;53.10;101193.50;146605;569;47008;-77
2022/06/17 05:05:41;;;;;;;;;16.25;16.25;;;;;24.54;53.52;101201.50;146626;631;45487;-80
2022/06/17 05:08:38;;;;;;;;;16.75;16.00;;;;;24.68;53.16;101204.19;146630;649;45010;-79
2022/06/17 05:11:39;;;;;;;;;19.25;18.50;;;;;24.85;53.00;101205.06;146627;565;45010;-82
2022/06/17 05:14:52;;;;;;;;;16.50;16.25;;;;;24.98;52.94;101199.75;146629;610;45010;-81
2022/06/17 05:17:45;;;;;;;;;17.00;16.00;;;;;25.17;51.94;101205.94;146630;585;45010;-78
2022/06/17 05:20:37;;;;;;;;;18.25;16.75;;;;;25.26;50.06;101211.25;146628;599;45010;-81
2022/06/17 05:23:29;;;;;;;;;18.75;18.75;;;;;25.27;51.06;101203.31;146627;564;46008;-79
2022/06/17 05:26:21;;;;;;;;;15.00;15.00;;;;;25.32;51.75;101196.19;146626;650;45020;-84
2022/06/17 05:29:14;;;;;;;;;15.50;13.75;;;;;25.34;49.99;101189.13;146631;577;45010;-79
2022/06/17 05:32:06;;;;;;;;;15.50;13.75;;;;;25.40;50.40;101192.66;146630;606;45010;-80
2022/06/17 05:34:58;;;;;;;;;15.25;14.50;;;;;25.43;50.52;101185.56;146626;656;45010;-79
2022/06/17 05:37:51;;;;;;;;;14.25;14.25;;;;;25.55;51.81;101184.66;146630;672;45010;-80
2022/06/17 05:40:43;;;;;;;;;16.25;13.50;;;;;25.73;52.55;101191.66;146630;629;45010;-81
2022/06/17 05:43:36;;;;;;;;;17.25;15.25;;;;;25.95;51.86;101190.72;146625;774;45010;-81
2022/06/17 05:46:28;;;;;;;;;15.75;15.75;;;;;26.18;52.00;101193.25;146623;757;45923;-81
2022/06/17 05:49:20;;;;;;;;;14.75;14.50;;;;;26.33;51.63;101191.41;146629;628;45010;-80
2022/06/17 05:52:15;;;;;;;;;19.50;17.25;;;;;26.47;50.54;101190.41;146628;570;46008;-83
2022/06/17 05:55:08;;;;;;;;;18.25;15.50;;;;;26.58;50.24;101189.50;146626;603;45020;-83
2022/06/17 05:58:01;;;;;;;;;17.50;15.75;;;;;26.68;49.72;101192.06;146624;564;46008;-83
2022/06/17 06:00:53;;;;;;;;;20.25;16.75;;;;;26.78;49.70;101200.84;146627;571;45011;-82
2022/06/17 06:03:45;;;;;;;;;15.75;15.25;;;;;26.86;49.98;101193.69;146621;569;46018;-85
2022/06/17 06:06:38;;;;;;;;;15.75;10.00;;;;;27.00;49.78;101193.56;146607;655;46020;-82
2022/06/17 06:09:30;;;;;;;;;19.25;15.25;;;;;27.11;48.17;101191.69;146607;673;46008;-79
2022/06/17 06:12:23;;;;;;;;;14.00;13.75;;;;;27.15;48.55;101197.91;146606;628;46020;-84
2022/06/17 06:15:15;;;;;;;;;13.75;13.25;;;;;27.20;48.45;101200.50;146606;573;46019;-84
2022/06/17 06:18:08;;;;;;;;;11.50;11.00;;;;;27.24;48.31;101195.16;146608;688;46008;-87
2022/06/17 06:21:04;;;;;;;;;13.50;12.25;;;;;27.33;47.63;101194.19;146607;677;46018;-80
2022/06/17 06:23:58;;;;;;;;;12.75;12.25;;;;;27.37;47.72;101196.78;146605;656;46020;-78
2022/06/17 06:26:50;;;;;;;;;14.75;13.50;;;;;27.39;45.34;101197.66;146607;671;46008;-77
2022/06/17 06:29:42;;;;;;;;;14.50;12.25;;;;;27.35;43.56;101197.69;146609;584;46008;-78
2022/06/17 06:32:35;;;;;;;;;13.33;13.33;;;;;27.28;45.62;101194.22;146609;656;46018;-79
2022/06/17 06:35:30;;;;;;;;;12.25;12.25;;;;;27.27;47.70;101192.47;146609;705;46025;-81
2022/06/17 06:38:22;;;;;;;;;10.33;10.33;;;;;27.26;44.94;101200.44;146608;569;47008;-84
2022/06/17 06:41:14;;;;;;;;;12.75;11.75;;;;;27.24;45.93;101191.62;146606;571;46020;-80
2022/06/17 06:44:06;;;;;;;;;11.00;10.25;;;;;27.20;45.39;101188.09;146605;639;47008;-73
2022/06/17 06:46:59;;;;;;;;;12.50;10.00;;;;;27.24;47.76;101186.28;146606;653;46020;-79
2022/06/17 06:49:50;;;;;;;;;10.00;10.00;;;;;27.32;46.64;101177.34;146610;673;45018;-75
2022/06/17 06:52:43;;;;;;;;;10.33;10.00;;;;;27.45;47.54;101180.75;146608;598;46009;-78
2022/06/17 06:55:35;;;;;;;;;10.33;10.33;;;;;27.53;46.63;101183.31;146609;577;46018;-75
2022/06/17 06:58:29;;;;;;;;;12.50;11.25;;;;;27.55;47.90;101171.72;146607;589;47008;-73
2022/06/17 07:01:22;;;;;;;;;8.33;7.00;;;;;27.52;45.68;101173.56;146610;604;46008;-73
2022/06/17 07:04:15;;;;;;;;;11.75;10.50;;;;;27.52;46.23;101169.09;146607;693;46010;-75
2022/06/17 07:07:07;;;;;;;;;9.33;9.33;;;;;27.56;46.24;101162.84;146605;619;47010;-74
2022/06/17 07:10:00;;;;;;;;;11.75;10.25;;;;;27.61;44.84;101163.66;146606;597;47008;-76
2022/06/17 07:12:52;;;;;;;;;8.33;8.33;;;;;27.68;45.80;101169.81;146608;631;46024;-74
2022/06/17 07:15:47;;;;;;;;;9.50;9.50;;;;;27.72;44.97;101163.53;146607;579;46008;-73
2022/06/17 07:18:41;;;;;;;;;6.67;5.33;;;;;27.79;44.94;101169.72;146608;609;46010;-74
2022/06/17 07:21:33;;;;;;;;;11.00;10.00;;;;;27.83;45.43;101160.78;146607;645;46021;-73
2022/06/17 07:24:25;;;;;;;;;12.25;10.75;;;;;27.93;45.17;101166.84;146606;646;46008;-74
2022/06/17 07:27:18;;;;;;;;;12.50;11.50;;;;;27.97;44.97;101166.78;146610;622;45048;-74
2022/06/17 07:30:13;;;;;;;;;9.00;8.67;;;;;28.03;43.10;101172.03;146611;590;46009;-73
2022/06/17 07:33:06;;;;;;;;;10.00;9.00;;;;;28.09;43.80;101166.63;146606;651;46020;-74
2022/06/17 07:36:01;;;;;;;;;8.67;8.67;;;;;28.12;43.27;101167.47;146609;603;46019;-73
2022/06/17 07:42:04;;;;;;;;;3.75;3.75;;;;;28.19;41.20;101161.16;146606;678;46018;-74
2022/06/17 07:44:56;;;;;;;;;7.67;7.33;;;;;28.19;42.74;101161.16;146610;606;46008;-73
2022/06/17 07:47:50;;;;;;;;;9.00;9.00;;;;;28.23;43.13;101153.09;146610;582;46008;-74
2022/06/17 07:50:43;;;;;;;;;9.75;8.75;;;;;28.35;41.80;101154.72;146606;608;47008;-73
2022/06/17 07:53:41;;;;;;;;;9.67;8.67;;;;;28.46;42.28;101163.44;146610;569;45018;-76
2022/06/17 07:56:33;;;;;;;;;6.33;6.33;;;;;28.47;41.84;101157.19;146609;601;46020;-75
2022/06/17 07:59:25;;;;;;;;;9.00;7.67;;;;;28.52;41.24;101150.00;146610;649;46018;-73
2022/06/17 08:02:17;;;;;;;;;9.00;8.33;;;;;28.58;41.22;101148.16;146607;595;46008;-74
2022/06/17 08:05:11;;;;;;;;;9.67;9.33;;;;;28.60;41.41;101143.66;146606;574;46018;-74
2022/06/17 08:08:04;;;;;;;;;9.00;9.00;;;;;28.68;41.12;101152.41;146607;618;46020;-74
2022/06/17 08:11:01;;;;;;;;;8.33;8.00;;;;;28.75;42.80;101148.72;146607;606;45922;-76
2022/06/17 08:13:53;;;;;;;;;8.25;8.25;;;;;28.83;42.48;101143.28;146607;645;46010;-74
2022/06/17 08:16:45;;;;;;;;;8.33;8.00;;;;;28.99;41.36;101147.41;146611;629;46008;-76
2022/06/17 08:19:38;;;;;;;;;9.33;8.00;;;;;29.09;41.15;101137.47;146607;570;46030;-81
2022/06/17 08:22:32;;;;;;;;;6.67;6.67;;;;;29.16;41.64;101125.75;146611;593;46008;-80
2022/06/17 08:25:25;;;;;;;;;7.25;7.25;;;;;29.27;42.13;101133.59;146608;569;46008;-80
2022/06/17 08:28:18;;;;;;;;;9.25;8.00;;;;;29.37;40.88;101132.47;146608;600;46008;-80
2022/06/17 08:31:11;;;;;;;;;8.00;6.75;;;;;29.44;40.16;101124.34;146608;686;46008;-82
2022/06/17 08:34:03;;;;;;;;;6.75;6.50;;;;;29.56;40.81;101132.97;146608;687;46008;-81
2022/06/17 08:36:55;;;;;;;;;9.50;7.00;;;;;29.63;38.92;101123.97;146607;639;46021;-83
2022/06/17 08:39:52;;;;;;;;;8.00;7.00;;;;;29.66;40.65;101131.94;146605;715;46010;-82
2022/06/17 08:43:13;;;;;;;;;8.75;7.25;;;;;28.61;42.68;100959.53;146608;727;46020;-81
2022/06/17 08:46:47;;;;;;;;;8.00;7.25;;;;;28.54;41.77;100960.59;146606;676;47008;-84
2022/06/17 08:50:17;;;;;;;;;5.25;4.00;;;;;28.44;42.17;100962.56;146609;588;46008;-81
2022/06/17 08:53:40;;;;;;;;;7.33;7.00;;;;;28.43;43.73;100968.78;146608;569;46008;-77
2022/06/17 08:56:39;;;;;;;;;6.75;6.75;;;;;29.36;41.16;101134.28;146606;638;46010;-78
2022/06/17 09:00:11;;;;;;;;;8.75;8.25;;;;;28.48;42.73;100977.56;146600;639;47008;-74
2022/06/17 09:03:41;;;;;;;;;6.25;6.25;;;;;29.36;40.44;101136.94;146608;607;46010;-77
2022/06/17 09:07:13;;;;;;;;;8.00;7.75;;;;;29.30;43.13;101134.41;146610;574;45019;-77
2022/06/17 09:10:31;;;;;;;;;8.00;7.50;;;;;29.31;41.74;101135.28;146602;707;47008;-78
2022/06/17 09:13:55;;;;;;;;;7.75;7.00;;;;;28.43;41.72;100986.56;146606;658;46018;-76
2022/06/17 09:17:25;;;;;;;;;7.50;6.50;;;;;28.45;42.66;100958.97;146607;595;46020;-82
2022/06/17 09:20:24;;;;;;;;;6.25;6.25;;;;;29.55;42.11;101131.22;146606;570;46008;-82
2022/06/17 09:23:21;;;;;;;;;7.75;7.75;;;;;29.66;40.81;101135.47;146608;638;46008;-81
2022/06/17 09:26:26;;;;;;;;;5.50;5.50;;;;;29.80;41.98;101126.28;146606;604;47008;-79
2022/06/17 09:30:07;;;;;;;;;9.00;6.00;;;;;28.81;42.17;100940.44;146606;586;47008;-79
2022/06/17 09:33:26;;;;;;;;;6.25;5.00;;;;;29.91;42.47;101117.12;146608;665;46018;-79
2022/06/17 09:36:33;;;;;;;;;7.00;6.00;;;;;29.94;40.56;101118.84;146605;687;47008;-79
2022/06/17 09:39:33;;;;;;;;;5.25;5.25;;;;;30.01;41.34;101104.41;146604;570;46018;-77
2022/06/17 09:42:37;;;;;;;;;7.50;6.25;;;;;30.11;39.26;101105.06;146606;621;46010;-78
2022/06/17 09:45:40;;;;;;;;;8.67;8.67;;;;;30.15;39.87;101106.75;146605;611;46010;-78
2022/06/17 09:49:04;;;;;;;;;5.00;5.00;;;;;29.06;39.87;100937.31;146609;649;46017;-78
2022/06/17 09:52:11;;;;;;;;;7.00;6.00;;;;;29.98;41.91;101109.81;146610;592;46008;-79
2022/06/17 09:55:19;;;;;;;;;6.67;6.67;;;;;29.97;43.72;101097.38;146607;605;46020;-79
2022/06/17 09:58:46;;;;;;;;;7.33;7.00;;;;;30.04;44.06;101103.47;146606;596;46924;-82
2022/06/17 10:01:39;;;;;;;;;8.00;7.00;;;;;30.03;44.49;101097.25;146606;671;46020;-83
2022/06/17 10:04:31;;;;;;;;;5.33;5.00;;;;;29.93;45.44;101099.22;146607;605;47008;-83
2022/06/17 10:07:44;;;;;;;;;7.67;5.33;;;;;29.88;45.85;101098.47;146609;562;47010;-80
2022/06/17 10:11:19;;;;;;;;;7.25;6.75;;;;;28.91;46.72;100946.47;146606;564;47008;-80
2022/06/17 10:14:51;;;;;;;;;8.33;7.00;;;;;28.69;47.70;100936.28;146606;621;46021;-79
2022/06/17 10:22:13;;;;;;;;;5.33;5.33;;;;;28.58;46.92;100914.25;146608;625;46008;-81
2022/06/17 10:25:46;;;;;;;;;6.33;6.00;;;;;28.57;47.09;100903.59;146605;587;47010;-82
2022/06/17 10:29:09;;;;;;;;;9.67;9.00;;;;;29.66;47.35;101091.84;146608;723;46008;-80
2022/06/17 10:32:02;;;;;;;;;7.67;6.00;;;;;29.68;47.14;101090.00;146608;571;46008;-81
2022/06/17 10:35:01;;;;;;;;;6.33;5.00;;;;;29.65;48.02;101076.72;146607;584;46025;-81
2022/06/17 10:37:54;;;;;;;;;5.67;5.67;;;;;29.69;47.25;101078.41;146607;569;46018;-80
2022/06/17 10:40:47;;;;;;;;;6.00;5.33;;;;;29.78;46.64;101088.88;146607;597;46020;-81
2022/06/17 10:43:46;;;;;;;;;5.67;5.67;;;;;29.85;46.13;101085.16;146607;598;46010;-77
2022/06/17 10:46:41;;;;;;;;;8.33;7.33;;;;;29.89;46.72;101080.63;146609;638;46026;-81
2022/06/17 10:49:47;;;;;;;;;8.00;6.67;;;;;29.89;46.51;101081.50;146607;625;46008;-82
2022/06/17 10:52:46;;;;;;;;;6.00;6.00;;;;;29.88;46.60;101084.22;146607;612;46020;-83
2022/06/17 10:55:45;;;;;;;;;7.33;7.00;;;;;29.86;46.79;101081.56;146608;584;46008;-81
2022/06/17 10:58:40;;;;;;;;;8.00;6.67;;;;;29.90;46.57;101077.91;146611;596;46008;-80
2022/06/17 11:01:58;;;;;;;;;9.00;7.00;;;;;29.90;46.89;101069.88;146609;570;46018;-82
2022/06/17 11:04:54;;;;;;;;;8.00;8.00;;;;;29.90;47.22;101067.22;146607;553;46020;-80
2022/06/17 11:08:04;;;;;;;;;9.00;7.33;;;;;29.90;47.02;101069.00;146609;579;46008;-77
2022/06/17 11:12:02;;;;;;;;;7.00;6.00;;;;;29.86;46.10;101078.91;146606;578;46020;-76
2022/06/17 11:14:25;;;;;;;;;6.33;6.33;;;;;29.83;46.77;101068.28;146607;632;46018;-77
2022/06/17 11:17:44;;;;;;;;;5.67;4.67;;;;;29.95;47.32;101063.56;146608;581;46008;-76
2022/06/17 11:20:42;;;;;;;;;7.33;7.33;;;;;30.14;46.21;101071.09;146607;590;46009;-76
2022/06/17 11:23:44;;;;;;;;;7.33;6.00;;;;;30.30;45.81;101060.94;146606;573;47006;-77
2022/06/17 11:26:40;;;;;;;;;6.33;6.33;;;;;30.38;45.49;101061.63;146606;617;46924;-77
2022/06/17 11:29:43;;;;;;;;;6.00;6.00;;;;;30.37;45.06;101053.63;146606;602;47008;-76
2022/06/17 11:32:37;;;;;;;;;6.67;5.33;;;;;30.32;44.64;101060.91;146605;603;47008;-80
2022/06/17 11:35:49;;;;;;;;;7.67;6.33;;;;;29.37;43.74;100903.62;146606;614;47010;-78
2022/06/17 11:38:41;;;;;;;;;6.00;6.00;;;;;30.24;44.38;101050.37;146607;570;46010;-78
2022/06/17 11:41:37;;;;;;;;;8.00;6.67;;;;;30.25;44.96;101038.78;146608;573;46008;-78
2022/06/17 11:44:30;;;;;;;;;6.33;5.67;;;;;30.22;44.47;101037.97;146604;574;47008;-77
2022/06/17 11:47:27;;;;;;;;;5.00;5.00;;;;;30.20;44.44;101040.69;146609;624;46020;-78
2022/06/17 11:50:30;;;;;;;;;5.00;5.00;;;;;30.15;43.85;101042.56;146608;610;46008;-77
2022/06/17 11:53:24;;;;;;;;;5.00;5.00;;;;;29.99;44.10;101039.38;146611;643;45049;-78
2022/06/17 11:56:31;;;;;;;;;6.00;6.00;;;;;29.98;44.95;101029.63;146609;654;46009;-78
2022/06/17 11:59:35;;;;;;;;;7.00;6.00;;;;;30.03;43.49;101026.81;146608;610;46020;-79
2022/06/17 12:02:28;;;;;;;;;6.00;6.00;;;;;30.04;44.76;101026.78;146607;603;47008;-79
2022/06/17 12:05:41;;;;;;;;;2.00;2.00;;;;;29.22;45.04;100858.59;146612;574;46020;-78
2022/06/17 12:08:49;;;;;;;;;4.33;4.33;;;;;30.10;44.81;101010.59;146617;641;46008;-77
2022/06/17 12:11:51;;;;;;;;;6.00;5.67;;;;;30.00;44.33;101022.44;146616;566;46021;-79
2022/06/17 12:15:12;;;;;;;;;6.00;6.00;;;;;28.83;44.04;100844.34;146614;594;46027;-78
2022/06/17 12:18:07;;;;;;;;;5.00;5.00;;;;;29.79;44.62;101013.13;146613;564;47008;-77
2022/06/17 12:21:37;;;;;;;;;5.00;5.00;;;;;29.89;45.05;101014.66;146613;600;47008;-78
2022/06/17 12:24:53;;;;;;;;;7.00;5.67;;;;;29.96;43.16;101011.84;146614;625;46009;-76
2022/06/17 12:28:03;;;;;;;;;4.00;4.00;;;;;29.95;45.44;101008.31;146614;571;47010;-79
2022/06/17 12:31:17;;;;;;;;;4.67;4.67;;;;;29.91;44.65;100995.94;146614;583;46020;-77
2022/06/17 12:34:35;;;;;;;;;5.00;5.00;;;;;29.91;45.00;101009.31;146615;599;46018;-75
2022/06/17 12:37:56;;;;;;;;;6.67;6.00;;;;;29.94;45.02;101003.88;146614;577;46026;-78
2022/06/17 12:41:03;;;;;;;;;5.67;5.33;;;;;30.03;44.99;100989.37;146614;630;47008;-77
2022/06/17 12:44:29;;;;;;;;;5.00;5.00;;;;;30.12;43.41;100975.78;146615;569;46008;-77
2022/06/17 12:47:56;;;;;;;;;6.25;6.25;;;;;30.17;44.43;100976.53;146613;577;46018;-77
2022/06/17 12:54:50;;;;;;;;;5.33;5.00;;;;;29.29;43.96;100816.63;146615;627;46008;-76
2022/06/17 12:58:06;;;;;;;;;5.50;5.50;;;;;30.32;43.43;100973.50;146615;668;46020;-76
2022/06/17 13:01:09;;;;;;;;;7.00;6.00;;;;;30.37;42.92;100960.91;146613;575;46018;-77
2022/06/17 13:04:48;;;;;;;;;8.33;7.33;;;;;30.36;42.72;100966.28;146611;581;46025;-79
2022/06/17 13:08:08;;;;;;;;;7.25;7.25;;;;;30.26;42.16;100954.94;146608;676;46008;-78
2022/06/17 13:11:21;;;;;;;;;7.67;6.67;;;;;30.26;42.59;100954.06;146611;629;46008;-77
2022/06/17 13:14:28;;;;;;;;;5.00;5.00;;;;;30.23;41.99;100951.47;146606;620;46924;-77
2022/06/17 13:17:33;;;;;;;;;8.00;6.67;;;;;30.17;41.76;100949.81;146608;573;47009;-76
2022/06/17 13:21:04;;;;;;;;;6.67;6.67;;;;;29.12;42.41;100771.63;146606;588;46925;-76
2022/06/17 13:24:42;;;;;;;;;7.33;7.00;;;;;29.90;41.65;100936.22;146609;685;46020;-78
2022/06/17 13:28:08;;;;;;;;;8.00;8.00;;;;;28.97;42.81;100779.06;146608;608;46018;-76
2022/06/17 13:31:06;;;;;;;;;6.67;6.67;;;;;29.88;43.29;100927.38;146611;639;45022;-78
2022/06/17 13:34:06;;;;;;;;;10.50;7.75;;;;;29.89;43.08;100929.13;146606;564;46019;-78
2022/06/17 13:37:34;;;;;;;;;8.00;5.33;;;;;29.88;43.80;100929.19;146609;589;46008;-79
2022/06/17 13:40:50;;;;;;;;;8.00;6.00;;;;;28.80;44.02;100733.22;146608;614;46008;-79
2022/06/17 13:44:30;;;;;;;;;6.67;6.67;;;;;28.84;44.68;100760.69;146608;593;47008;-78
2022/06/17 13:48:13;;;;;;;;;5.50;5.50;;;;;28.83;43.89;100766.97;146608;664;46018;-79
2022/06/17 13:51:43;;;;;;;;;5.33;5.33;;;;;28.73;42.79;100744.97;146607;591;46008;-79
2022/06/17 13:55:02;;;;;;;;;7.00;7.00;;;;;29.74;44.24;100925.97;146606;642;46018;-76
2022/06/17 13:58:20;;;;;;;;;7.00;7.00;;;;;29.79;43.64;100916.91;146608;614;46020;-77
2022/06/17 14:01:55;;;;;;;;;7.75;7.75;;;;;28.80;44.38;100753.69;146607;609;46008;-79
2022/06/17 14:05:33;;;;;;;;;7.00;7.00;;;;;28.73;43.45;100760.97;146605;587;46021;-78
2022/06/17 14:08:58;;;;;;;;;7.50;7.00;;;;;28.69;44.30;100761.94;146605;579;47010;-78
2022/06/17 14:11:52;;;;;;;;;7.00;7.00;;;;;29.65;42.91;100932.41;146607;711;46008;-78